Time;durP1;ratioP1;P1;durP2;ratioP2;P2;SDS_P1;SDS_P2;PMS_P1;PMS_P2;Temp;Humidity;BMP_temperature;BMP_pressure;BME280_temperature;BME280_humidity;BME280_pressure;Samples;Min_cycle;Max_cycle;Signal;HPM_P1;HPM_P2
2022/11/10 06:00:30;;;;;;;14.23;12.70;;;10.30;97.20;;;;;;1693561;29;20204;-72
2022/11/10 06:01:21;;;;;;;9.90;8.88;;;10.30;97.20;;;;;;1693318;29;20212;-71
2022/11/10 06:02:12;;;;;;;8.63;6.47;;;10.30;97.20;;;;;;1693869;29;20200;-71
2022/11/10 06:03:05;;;;;;;5.47;4.97;;;10.30;97.20;;;;;;1693711;29;20231;-71
2022/11/10 06:03:57;;;;;;;3.90;3.40;;;10.30;97.20;;;;;;1693906;29;20211;-71
2022/11/10 06:04:48;;;;;;;4.85;4.35;;;10.30;97.20;;;;;;1694091;29;20215;-70
2022/11/10 06:05:39;;;;;;;7.27;6.10;;;10.30;97.20;;;;;;1693953;29;20210;-71
2022/11/10 06:06:30;;;;;;;5.05;4.55;;;10.30;97.20;;;;;;1693698;29;20219;-70
2022/11/10 06:07:22;;;;;;;4.57;4.17;;;10.30;97.20;;;;;;1690589;29;20243;-71
2022/11/10 06:08:13;;;;;;;4.20;3.80;;;10.30;97.20;;;;;;1693626;29;20200;-71
2022/11/10 06:09:05;;;;;;;4.25;3.85;;;10.30;97.20;;;;;;1693424;29;20206;-70
2022/11/10 06:09:55;;;;;;;4.55;3.88;;;10.30;97.20;;;;;;1693345;29;20346;-70
2022/11/10 06:10:47;;;;;;;4.03;3.73;;;10.30;97.20;;;;;;1693770;29;20212;-70
2022/11/10 06:11:38;;;;;;;3.35;3.05;;;10.30;97.20;;;;;;1693307;29;20204;-70
2022/11/10 06:12:30;;;;;;;3.47;3.17;;;10.30;97.20;;;;;;1693900;29;20203;-70
2022/11/10 06:13:20;;;;;;;3.10;2.80;;;10.30;97.20;;;;;;1693884;29;20686;-71
2022/11/10 06:14:12;;;;;;;3.20;2.90;;;10.30;97.20;;;;;;1693155;29;20559;-70
2022/11/10 06:15:04;;;;;;;2.90;2.05;;;10.30;97.20;;;;;;1693771;29;20208;-70
2022/11/10 06:15:57;;;;;;;3.05;2.00;;;10.30;97.20;;;;;;1693531;29;20292;-71
2022/11/10 06:16:48;;;;;;;1.98;1.75;;;10.30;97.20;;;;;;1693637;29;20734;-70
2022/11/10 06:17:40;;;;;;;3.93;1.57;;;10.30;97.20;;;;;;1691300;29;20599;-70
2022/11/10 06:18:31;;;;;;;2.30;2.10;;;10.30;97.20;;;;;;1687442;29;20675;-70
2022/11/10 06:19:22;;;;;;;2.33;2.13;;;10.30;97.20;;;;;;1694200;29;20562;-70
2022/11/10 06:20:15;;;;;;;3.72;1.38;;;10.30;97.20;;;;;;1694258;29;20487;-70
2022/11/10 06:21:08;;;;;;;1.83;1.70;;;10.30;97.20;;;;;;1693329;29;20207;-71
2022/11/10 06:21:58;;;;;;;2.33;1.95;;;10.30;97.20;;;;;;1692755;29;20287;-70
2022/11/10 06:23:01;;;;;;;2.30;1.63;;;10.30;97.20;;;;;;1693838;29;20215;-70
2022/11/10 06:23:52;;;;;;;5.38;2.15;;;10.30;97.20;;;;;;1693574;29;20204;-70
2022/11/10 06:24:43;;;;;;;5.30;1.77;;;10.30;97.20;;;;;;1693816;29;20214;-70
2022/11/10 06:25:36;;;;;;;1.77;1.60;;;10.30;97.20;;;;;;1693647;29;20589;-71
2022/11/10 06:26:28;;;;;;;2.35;1.60;;;10.30;97.20;;;;;;1693440;29;20211;-71
2022/11/10 06:27:18;;;;;;;2.00;1.60;;;10.30;97.20;;;;;;1691942;29;20204;-70
2022/11/10 06:28:10;;;;;;;1.50;1.40;;;10.30;97.20;;;;;;1687201;29;20204;-70
2022/11/10 06:29:01;;;;;;;2.75;1.70;;;10.20;97.20;;;;;;1687254;29;20204;-70
2022/11/10 06:29:53;;;;;;;5.00;1.73;;;10.20;97.20;;;;;;1689196;29;20228;-70
2022/11/10 06:30:43;;;;;;;2.25;2.00;;;10.20;97.20;;;;;;1693610;29;20470;-69
2022/11/10 06:31:36;;;;;;;2.40;2.20;;;10.20;97.20;;;;;;1691016;29;20215;-69
2022/11/10 06:32:28;;;;;;;2.28;2.05;;;10.20;97.20;;;;;;1686228;29;20201;-69
2022/11/10 06:33:19;;;;;;;2.45;1.70;;;10.20;97.20;;;;;;1687335;29;20247;-69
2022/11/10 06:34:10;;;;;;;2.20;1.75;;;10.20;97.20;;;;;;1687399;29;20216;-69
2022/11/10 06:35:02;;;;;;;1.90;1.80;;;10.20;97.20;;;;;;1687317;29;20209;-69
2022/11/10 06:35:52;;;;;;;1.85;1.65;;;10.20;97.20;;;;;;1687299;29;20212;-70
2022/11/10 06:36:44;;;;;;;2.80;2.10;;;10.20;97.20;;;;;;1686980;29;20208;-70
2022/11/10 06:37:37;;;;;;;2.00;1.85;;;10.20;97.20;;;;;;1691419;29;20207;-69
2022/11/10 06:38:29;;;;;;;2.75;2.00;;;10.10;97.20;;;;;;1697350;29;20203;-70
2022/11/10 06:39:19;;;;;;;2.95;2.05;;;10.10;97.20;;;;;;1698335;29;20213;-69
2022/11/10 06:40:13;;;;;;;2.00;1.43;;;10.10;97.20;;;;;;1693162;29;20196;-70
2022/11/10 06:41:04;;;;;;;2.55;1.65;;;10.10;97.20;;;;;;1693406;29;20216;-69
2022/11/10 06:41:56;;;;;;;2.38;1.80;;;10.10;97.20;;;;;;1693410;29;20653;-70
2022/11/10 06:42:46;;;;;;;1.55;1.45;;;10.10;97.20;;;;;;1693853;29;20235;-70
2022/11/10 06:43:38;;;;;;;2.43;1.70;;;10.20;97.20;;;;;;1693632;29;20202;-70
2022/11/10 06:44:29;;;;;;;3.50;1.60;;;10.20;97.20;;;;;;1693674;29;20212;-70
2022/11/10 06:45:20;;;;;;;3.83;2.00;;;10.20;97.20;;;;;;1693880;29;20204;-70
2022/11/10 06:46:11;;;;;;;3.67;2.25;;;10.20;97.20;;;;;;1693538;29;20697;-70
2022/11/10 06:47:04;;;;;;;2.70;2.13;;;10.20;97.20;;;;;;1693703;29;20680;-71
2022/11/10 06:47:59;;;;;;;3.63;2.22;;;10.20;97.20;;;;;;1693711;29;20230;-71
2022/11/10 06:48:51;;;;;;;2.70;2.50;;;10.20;97.20;;;;;;1693809;29;20208;-70
2022/11/10 06:49:41;;;;;;;3.35;2.92;;;10.20;97.20;;;;;;1693339;29;20215;-70
2022/11/10 06:50:33;;;;;;;3.83;3.40;;;10.20;97.20;;;;;;1693404;29;20231;-71
2022/11/10 06:51:24;;;;;;;8.93;3.55;;;10.20;97.20;;;;;;1693127;29;20266;-70
2022/11/10 06:52:16;;;;;;;3.73;3.43;;;10.20;97.20;;;;;;1693680;29;20195;-70
2022/11/10 06:53:08;;;;;;;3.65;3.35;;;10.20;97.20;;;;;;1693798;29;20673;-70
2022/11/10 06:54:00;;;;;;;3.80;3.50;;;10.20;97.20;;;;;;1693657;29;20204;-70
2022/11/10 06:54:50;;;;;;;3.30;3.10;;;10.30;97.20;;;;;;1693732;29;20212;-68
2022/11/10 06:55:42;;;;;;;3.70;3.33;;;10.30;97.20;;;;;;1693533;29;20198;-69
2022/11/10 06:56:33;;;;;;;4.72;4.43;;;10.30;97.20;;;;;;1693454;29;20239;-72
2022/11/10 06:57:25;;;;;;;5.15;4.65;;;10.30;97.20;;;;;;1693693;29;20302;-69
2022/11/10 06:58:16;;;;;;;4.82;4.35;;;10.30;97.20;;;;;;1693654;29;20214;-70
2022/11/10 06:59:08;;;;;;;6.73;5.70;;;10.30;97.20;;;;;;1693721;29;20214;-70
2022/11/10 06:59:58;;;;;;;5.30;4.90;;;10.30;97.20;;;;;;1693034;29;20227;-70
2022/11/10 07:00:50;;;;;;;5.03;4.63;;;10.30;97.20;;;;;;1693512;29;20218;-70
2022/11/10 07:01:41;;;;;;;5.70;5.20;;;10.30;97.20;;;;;;1692875;29;20681;-70
2022/11/10 07:02:34;;;;;;;5.60;5.10;;;10.40;97.20;;;;;;1693781;29;20577;-70
2022/11/10 07:03:25;;;;;;;6.55;5.38;;;10.40;97.20;;;;;;1693728;29;20208;-70
2022/11/10 07:04:17;;;;;;;5.78;5.13;;;10.40;97.20;;;;;;1693550;29;20227;-70
2022/11/10 07:05:09;;;;;;;5.13;4.72;;;10.40;97.20;;;;;;1693460;29;20721;-71
2022/11/10 07:06:01;;;;;;;5.70;5.15;;;10.40;97.20;;;;;;1693749;29;20207;-70
2022/11/10 07:06:52;;;;;;;5.40;4.90;;;10.40;97.20;;;;;;1693129;29;20231;-69
2022/11/10 07:07:44;;;;;;;4.70;4.30;;;10.40;97.20;;;;;;1692194;29;20211;-70
2022/11/10 07:08:35;;;;;;;5.57;5.05;;;10.40;97.20;;;;;;1687166;29;21022;-69
2022/11/10 07:09:26;;;;;;;5.23;4.73;;;10.40;97.20;;;;;;1688554;29;20562;-69
2022/11/10 07:10:17;;;;;;;10.07;4.30;;;10.40;97.20;;;;;;1691587;29;20219;-69
2022/11/10 07:11:09;;;;;;;4.90;3.90;;;10.40;97.20;;;;;;1692962;29;20192;-69
2022/11/10 07:12:00;;;;;;;5.15;4.55;;;10.40;97.20;;;;;;1693350;29;20200;-70
2022/11/10 07:12:57;;;;;;;4.93;4.27;;;10.50;97.20;;;;;;1693599;29;20211;-69
2022/11/10 07:13:48;;;;;;;6.63;4.38;;;10.50;97.20;;;;;;1693584;29;20807;-69
2022/11/10 07:14:39;;;;;;;4.60;4.20;;;10.50;97.20;;;;;;1693248;29;20706;-69
2022/11/10 07:15:32;;;;;;;4.10;3.77;;;10.50;97.20;;;;;;1688120;29;20233;-70
2022/11/10 07:16:23;;;;;;;8.75;3.85;;;10.50;97.20;;;;;;1687035;29;20467;-73
2022/11/10 07:17:15;;;;;;;3.60;3.30;;;10.60;97.20;;;;;;1691939;29;20283;-70
2022/11/10 07:18:07;;;;;;;4.10;3.35;;;10.60;97.20;;;;;;1693509;29;20718;-70
2022/11/10 07:18:59;;;;;;;4.35;3.95;;;10.60;97.20;;;;;;1693594;29;20235;-70
2022/11/10 07:19:50;;;;;;;3.13;2.88;;;10.60;97.20;;;;;;1692666;29;20215;-69
2022/11/10 07:20:41;;;;;;;4.20;3.60;;;10.70;97.20;;;;;;1689777;29;20209;-70
2022/11/10 07:21:33;;;;;;;4.15;3.33;;;10.70;97.20;;;;;;1691388;29;20542;-70
2022/11/10 07:22:24;;;;;;;4.10;3.25;;;10.70;97.20;;;;;;1693046;29;20235;-72
2022/11/10 07:23:15;;;;;;;4.47;3.70;;;10.70;97.20;;;;;;1692993;29;20230;-70
2022/11/10 07:24:07;;;;;;;4.57;3.90;;;10.70;97.20;;;;;;1692950;29;20204;-71
2022/11/10 07:24:59;;;;;;;4.28;3.85;;;10.80;97.20;;;;;;1690871;29;20205;-70
2022/11/10 07:25:49;;;;;;;4.85;4.10;;;10.80;97.20;;;;;;1687812;29;20648;-71
2022/11/10 07:26:41;;;;;;;4.60;4.20;;;10.80;97.20;;;;;;1692713;29;20308;-71
2022/11/10 07:27:32;;;;;;;4.40;3.55;;;10.80;97.20;;;;;;1696469;29;20582;-71
2022/11/10 07:28:23;;;;;;;4.73;3.20;;;10.90;97.20;;;;;;1699669;29;20203;-70
2022/11/10 07:29:14;;;;;;;3.15;2.75;;;10.90;97.20;;;;;;1699718;29;20215;-70
2022/11/10 07:30:07;;;;;;;3.80;2.57;;;10.90;97.20;;;;;;1695046;29;20207;-70
2022/11/10 07:31:01;;;;;;;3.95;2.95;;;11.00;97.20;;;;;;1693745;29;20227;-70
2022/11/10 07:31:52;;;;;;;3.83;3.05;;;11.00;97.20;;;;;;1688801;29;20220;-70
2022/11/10 07:32:44;;;;;;;2.40;2.20;;;11.00;97.20;;;;;;1683729;29;20308;-70
2022/11/10 07:33:37;;;;;;;3.88;2.20;;;11.10;97.20;;;;;;1681336;29;20449;-70
2022/11/10 07:34:28;;;;;;;3.17;2.13;;;11.10;97.20;;;;;;1681665;29;20232;-70
2022/11/10 07:35:20;;;;;;;4.40;1.98;;;11.10;97.20;;;;;;1681813;29;20205;-70
2022/11/10 07:36:11;;;;;;;2.15;1.95;;;11.10;97.20;;;;;;1677016;29;20198;-70
2022/11/10 07:37:02;;;;;;;2.10;1.90;;;11.20;97.20;;;;;;1676864;29;20197;-69
2022/11/10 07:37:54;;;;;;;3.28;1.98;;;11.20;97.20;;;;;;1681757;29;20557;-70
2022/11/10 07:38:46;;;;;;;2.20;1.98;;;11.20;97.20;;;;;;1685158;29;20288;-69
2022/11/10 07:39:36;;;;;;;3.70;1.95;;;11.30;97.20;;;;;;1687841;29;20682;-69
2022/11/10 07:40:28;;;;;;;3.03;2.10;;;11.30;97.20;;;;;;1681508;29;20720;-69
2022/11/10 07:41:19;;;;;;;2.92;2.10;;;11.40;97.20;;;;;;1681370;29;20212;-70
2022/11/10 07:42:11;;;;;;;3.97;2.23;;;11.40;97.20;;;;;;1675309;29;20293;-70
2022/11/10 07:43:02;;;;;;;4.35;2.50;;;11.50;97.20;;;;;;1685682;29;20959;-69
2022/11/10 07:43:53;;;;;;;4.53;2.10;;;11.50;97.20;;;;;;1688397;29;20755;-69
2022/11/10 07:44:44;;;;;;;6.60;2.58;;;11.60;97.20;;;;;;1688418;29;20453;-70
2022/11/10 07:45:36;;;;;;;3.53;2.57;;;11.60;97.20;;;;;;1688250;29;20247;-70
2022/11/10 07:46:27;;;;;;;3.55;2.22;;;11.70;97.20;;;;;;1688161;29;20205;-69
2022/11/10 07:47:19;;;;;;;3.83;2.55;;;11.70;97.20;;;;;;1688258;29;20299;-70
2022/11/10 07:48:09;;;;;;;3.70;2.78;;;11.80;97.20;;;;;;1685908;29;20220;-69
2022/11/10 07:49:03;;;;;;;3.23;2.47;;;11.90;97.20;;;;;;1676273;29;20212;-69
2022/11/10 07:49:53;;;;;;;2.30;2.10;;;11.90;97.20;;;;;;1678647;29;20213;-69
2022/11/10 07:50:46;;;;;;;3.30;2.73;;;12.00;97.20;;;;;;1681683;29;20229;-68
2022/11/10 07:51:36;;;;;;;4.55;2.95;;;12.10;97.20;;;;;;1680810;29;20201;-71
2022/11/10 07:52:28;;;;;;;4.37;2.70;;;12.10;97.20;;;;;;1676492;29;20212;-70
2022/11/10 07:53:19;;;;;;;4.18;2.20;;;12.20;97.20;;;;;;1674748;29;20209;-70
2022/11/10 07:54:11;;;;;;;4.65;1.90;;;12.20;97.20;;;;;;1679268;29;20230;-70
2022/11/10 07:55:03;;;;;;;2.70;2.20;;;12.30;97.20;;;;;;1681389;29;20205;-70
2022/11/10 07:55:55;;;;;;;2.58;1.70;;;12.40;97.20;;;;;;1680973;29;20205;-70
2022/11/10 07:56:45;;;;;;;5.20;2.03;;;12.40;97.20;;;;;;1678580;29;20205;-70
2022/11/10 07:57:37;;;;;;;4.20;2.33;;;12.50;97.20;;;;;;1680198;29;20244;-71
2022/11/10 07:58:29;;;;;;;2.30;2.10;;;12.50;97.20;;;;;;1681739;29;20221;-70
2022/11/10 07:59:20;;;;;;;3.22;1.98;;;12.60;97.20;;;;;;1681894;29;20213;-70
2022/11/10 08:00:13;;;;;;;5.87;2.60;;;12.60;97.20;;;;;;1682521;29;20253;-70
2022/11/10 08:01:04;;;;;;;4.35;1.98;;;12.70;97.20;;;;;;1679465;29;20611;-70
2022/11/10 08:01:55;;;;;;;2.53;2.03;;;12.70;97.20;;;;;;1686121;29;20617;-70
2022/11/10 08:02:46;;;;;;;3.50;2.40;;;12.80;97.20;;;;;;1688418;29;20455;-70
2022/11/10 08:03:38;;;;;;;5.07;2.00;;;12.90;97.20;;;;;;1688191;29;20204;-70
2022/11/10 08:04:30;;;;;;;4.65;2.30;;;12.90;97.20;;;;;;1687741;29;20216;-70
2022/11/10 08:05:22;;;;;;;4.47;2.63;;;13.00;97.20;;;;;;1675438;29;20202;-70
2022/11/10 08:06:13;;;;;;;2.33;2.00;;;13.00;97.20;;;;;;1675072;29;20213;-70
2022/11/10 08:07:04;;;;;;;6.20;4.15;;;13.10;97.20;;;;;;1675173;29;20230;-70
2022/11/10 08:07:56;;;;;;;6.73;3.80;;;13.10;97.20;;;;;;1675648;29;20217;-69
2022/11/10 08:08:48;;;;;;;4.72;3.33;;;13.20;97.20;;;;;;1677986;29;20212;-70
2022/11/10 08:09:38;;;;;;;16.92;4.25;;;13.30;97.20;;;;;;1681476;29;20213;-70
2022/11/10 08:10:31;;;;;;;6.53;3.83;;;13.30;97.20;;;;;;1681447;29;20213;-70
2022/11/10 08:11:21;;;;;;;3.58;2.90;;;13.40;97.20;;;;;;1680332;29;20205;-70
2022/11/10 08:12:13;;;;;;;4.53;2.50;;;13.50;97.20;;;;;;1685670;29;20207;-70
2022/11/10 08:13:06;;;;;;;4.65;2.58;;;13.50;97.20;;;;;;1688212;29;20347;-70
2022/11/10 08:13:58;;;;;;;2.88;2.30;;;13.60;97.20;;;;;;1688338;29;20769;-70
2022/11/10 08:14:48;;;;;;;4.72;3.25;;;13.60;97.20;;;;;;1676540;29;20202;-70
2022/11/10 08:15:41;;;;;;;3.27;2.67;;;13.70;97.20;;;;;;1675380;29;20299;-70
2022/11/10 08:16:32;;;;;;;3.15;2.20;;;13.70;97.20;;;;;;1674895;29;20450;-70
2022/11/10 08:17:24;;;;;;;5.00;2.70;;;13.80;97.20;;;;;;1675339;29;20711;-69
2022/11/10 08:18:17;;;;;;;8.30;2.40;;;13.90;97.20;;;;;;1675281;29;20210;-70
2022/11/10 08:19:08;;;;;;;7.85;3.17;;;13.90;97.20;;;;;;1675409;29;20205;-70
2022/11/10 08:20:01;;;;;;;6.60;3.05;;;14.00;97.20;;;;;;1675495;29;20217;-70
2022/11/10 08:20:52;;;;;;;4.05;2.35;;;14.00;97.20;;;;;;1675422;29;20225;-70
2022/11/10 08:21:43;;;;;;;4.57;2.22;;;14.10;97.20;;;;;;1678547;29;20197;-70
2022/11/10 08:22:35;;;;;;;4.30;2.37;;;14.20;97.20;;;;;;1681871;29;20205;-70
2022/11/10 08:23:27;;;;;;;2.90;1.77;;;14.20;97.20;;;;;;1679884;29;20201;-70
2022/11/10 08:24:18;;;;;;;5.53;1.80;;;14.30;97.20;;;;;;1681923;29;20233;-69
2022/11/10 08:25:10;;;;;;;3.87;1.87;;;14.40;97.20;;;;;;1681550;29;20208;-70
2022/11/10 08:26:01;;;;;;;4.47;1.67;;;14.40;97.20;;;;;;1681844;29;20216;-70
2022/11/10 08:26:52;;;;;;;1.98;1.40;;;14.50;97.20;;;;;;1680141;29;20217;-69
2022/11/10 08:27:44;;;;;;;4.33;1.70;;;14.60;97.20;;;;;;1675327;29;20220;-69
2022/11/10 08:28:34;;;;;;;2.67;1.67;;;14.60;97.20;;;;;;1675302;29;20221;-69
2022/11/10 08:29:26;;;;;;;3.10;1.60;;;14.60;97.20;;;;;;1675392;29;20216;-70
2022/11/10 08:30:17;;;;;;;5.10;1.85;;;14.70;97.20;;;;;;1675272;29;20677;-69
2022/11/10 08:31:09;;;;;;;5.63;1.93;;;14.80;97.20;;;;;;1678209;29;20601;-69
2022/11/10 08:31:59;;;;;;;5.57;1.83;;;14.80;97.20;;;;;;1676218;29;20217;-69
2022/11/10 08:32:54;;;;;;;4.47;1.77;;;14.90;97.20;;;;;;1675284;29;20214;-69
2022/11/10 08:33:45;;;;;;;2.83;1.50;;;14.90;97.20;;;;;;1675418;29;20685;-69
2022/11/10 08:34:36;;;;;;;4.93;2.03;;;14.90;97.20;;;;;;1675317;29;20206;-69
2022/11/10 08:35:33;;;;;;;3.33;1.60;;;15.00;97.20;;;;;;1675346;29;20210;-70
2022/11/10 08:36:25;;;;;;;3.58;1.63;;;15.00;97.20;;;;;;1674801;29;20292;-70
2022/11/10 08:37:16;;;;;;;3.88;2.28;;;15.10;97.20;;;;;;1675059;29;20205;-70
2022/11/10 08:38:09;;;;;;;5.33;2.10;;;15.10;97.20;;;;;;1675235;29;20202;-69
2022/11/10 08:39:00;;;;;;;4.30;2.30;;;15.20;97.20;;;;;;1675339;29;20234;-70
2022/11/10 08:39:51;;;;;;;4.72;2.30;;;15.20;97.20;;;;;;1675273;29;20214;-69
2022/11/10 08:40:43;;;;;;;3.33;2.37;;;15.30;97.20;;;;;;1676123;29;20230;-70
2022/11/10 08:41:34;;;;;;;6.15;2.35;;;15.30;97.20;;;;;;1679733;29;20216;-70
2022/11/10 08:42:26;;;;;;;3.53;2.80;;;15.30;97.20;;;;;;1674752;29;20216;-71
2022/11/10 08:43:18;;;;;;;7.63;2.75;;;15.40;97.20;;;;;;1675229;29;20206;-70
2022/11/10 08:44:09;;;;;;;3.25;2.15;;;15.40;97.20;;;;;;1675297;29;20241;-70
2022/11/10 08:45:01;;;;;;;7.10;2.53;;;15.40;97.20;;;;;;1674984;29;20194;-70
2022/11/10 08:45:53;;;;;;;3.65;1.92;;;15.40;97.20;;;;;;1675046;29;20214;-70
2022/11/10 08:46:45;;;;;;;2.80;2.25;;;15.50;97.20;;;;;;1674375;29;20283;-70
2022/11/10 08:47:36;;;;;;;5.95;2.30;;;15.50;97.20;;;;;;1675315;29;20234;-70
2022/11/10 08:48:28;;;;;;;2.73;1.90;;;15.50;97.20;;;;;;1681449;29;20197;-70
2022/11/10 08:49:19;;;;;;;5.15;2.13;;;15.50;97.20;;;;;;1688054;29;20200;-69
2022/11/10 08:50:10;;;;;;;3.70;2.13;;;15.50;97.20;;;;;;1688063;29;20204;-69
2022/11/10 08:51:03;;;;;;;4.65;2.60;;;15.60;97.20;;;;;;1683208;29;20710;-70
2022/11/10 08:51:54;;;;;;;5.10;2.78;;;15.60;97.20;;;;;;1676084;29;20704;-72
2022/11/10 08:52:45;;;;;;;4.10;2.35;;;15.70;97.20;;;;;;1680207;29;20219;-70
2022/11/10 08:53:37;;;;;;;2.90;2.33;;;15.70;97.20;;;;;;1680763;29;20209;-70
2022/11/10 08:54:27;;;;;;;5.30;2.47;;;15.80;97.20;;;;;;1679175;29;20212;-70
2022/11/10 08:55:20;;;;;;;6.67;2.60;;;15.80;97.20;;;;;;1674642;29;20214;-70
2022/11/10 08:56:11;;;;;;;4.43;2.33;;;15.90;97.20;;;;;;1673811;29;20206;-70
2022/11/10 08:57:02;;;;;;;4.03;2.50;;;15.90;97.20;;;;;;1673952;29;20253;-70
2022/11/10 08:57:58;;;;;;;3.53;2.50;;;15.90;97.20;;;;;;1674983;29;20220;-70
2022/11/10 08:58:51;;;;;;;2.83;1.80;;;15.90;97.20;;;;;;1675401;29;20216;-71
2022/11/10 08:59:41;;;;;;;2.75;1.70;;;15.90;97.20;;;;;;1675426;29;20206;-70
2022/11/10 09:00:33;;;;;;;3.80;1.93;;;15.90;97.20;;;;;;1675278;29;20344;-70
2022/11/10 09:01:24;;;;;;;3.65;2.00;;;15.80;97.20;;;;;;1675220;29;20245;-70
2022/11/10 09:02:16;;;;;;;2.30;1.80;;;15.80;97.20;;;;;;1675262;29;20230;-70
2022/11/10 09:03:09;;;;;;;4.30;2.03;;;15.70;97.20;;;;;;1676558;29;20214;-70
2022/11/10 09:04:01;;;;;;;4.45;2.08;;;15.70;97.20;;;;;;1680636;29;20209;-70
2022/11/10 09:04:52;;;;;;;3.83;2.05;;;15.80;97.20;;;;;;1678534;29;20202;-70
2022/11/10 09:05:44;;;;;;;4.03;2.10;;;15.80;97.20;;;;;;1675058;29;20202;-70
2022/11/10 09:06:36;;;;;;;3.53;1.98;;;15.80;97.20;;;;;;1674417;29;20221;-70
2022/11/10 09:07:28;;;;;;;3.53;2.30;;;15.80;97.20;;;;;;1675150;29;20676;-70
2022/11/10 09:08:18;;;;;;;3.22;2.35;;;15.80;97.20;;;;;;1675058;29;20202;-70
2022/11/10 09:09:10;;;;;;;4.03;2.30;;;15.90;97.20;;;;;;1675269;29;20207;-70
2022/11/10 09:10:01;;;;;;;2.78;2.08;;;15.80;97.20;;;;;;1675102;29;20213;-70
2022/11/10 09:10:53;;;;;;;3.60;2.00;;;15.90;97.20;;;;;;1675161;29;20222;-70
2022/11/10 09:11:44;;;;;;;3.72;2.28;;;15.90;97.20;;;;;;1675123;29;20205;-72
2022/11/10 09:12:36;;;;;;;2.67;2.33;;;15.90;97.20;;;;;;1680826;29;20205;-71
2022/11/10 09:13:27;;;;;;;3.90;1.90;;;15.90;97.20;;;;;;1681653;29;20216;-70
2022/11/10 09:14:19;;;;;;;3.53;2.03;;;16.00;97.20;;;;;;1681635;29;20207;-70
2022/11/10 09:15:10;;;;;;;4.82;2.53;;;16.00;97.20;;;;;;1680092;29;20201;-70
2022/11/10 09:16:03;;;;;;;6.43;2.10;;;16.10;97.20;;;;;;1681448;29;20261;-70
2022/11/10 09:16:53;;;;;;;4.28;1.80;;;16.10;97.20;;;;;;1674246;29;20232;-70
2022/11/10 09:17:45;;;;;;;3.43;1.90;;;16.20;97.20;;;;;;1675199;29;20466;-70
2022/11/10 09:18:36;;;;;;;3.97;2.05;;;16.30;97.20;;;;;;1675075;29;20209;-70
2022/11/10 09:19:28;;;;;;;3.90;1.90;;;16.40;97.20;;;;;;1675247;29;20209;-69
2022/11/10 09:20:19;;;;;;;3.53;1.95;;;16.40;97.20;;;;;;1675114;29;20206;-70
2022/11/10 09:21:11;;;;;;;2.50;1.70;;;16.50;97.20;;;;;;1676088;29;20209;-70
2022/11/10 09:22:03;;;;;;;2.60;1.83;;;16.50;97.20;;;;;;1675044;29;20454;-70
2022/11/10 09:22:55;;;;;;;3.63;2.03;;;16.60;97.20;;;;;;1675211;29;20213;-70
2022/11/10 09:23:47;;;;;;;4.47;1.60;;;16.70;97.20;;;;;;1675169;29;20198;-70
2022/11/10 09:24:39;;;;;;;4.10;1.52;;;16.80;97.20;;;;;;1675098;29;20281;-70
2022/11/10 09:25:29;;;;;;;7.97;2.38;;;16.80;97.20;;;;;;1681133;29;20209;-70
2022/11/10 09:26:21;;;;;;;3.97;1.90;;;16.90;97.20;;;;;;1680997;29;20675;-70
2022/11/10 09:27:12;;;;;;;3.85;2.10;;;17.00;97.20;;;;;;1681059;29;20204;-70
2022/11/10 09:28:04;;;;;;;4.40;2.07;;;17.10;97.20;;;;;;1681418;29;20677;-70
2022/11/10 09:28:54;;;;;;;4.45;1.70;;;17.10;97.20;;;;;;1681237;29;20667;-71
2022/11/10 09:29:46;;;;;;;3.47;1.90;;;17.20;97.20;;;;;;1681522;29;20572;-70
2022/11/10 09:30:38;;;;;;;3.08;1.60;;;17.30;97.20;;;;;;1681436;29;20236;-71
2022/11/10 09:31:28;;;;;;;3.97;1.65;;;17.40;97.20;;;;;;1679863;29;20235;-70
2022/11/10 09:32:20;;;;;;;3.70;1.60;;;17.50;97.20;;;;;;1681120;29;20213;-70
2022/11/10 09:33:11;;;;;;;3.90;1.88;;;17.50;97.20;;;;;;1681247;29;20680;-71
2022/11/10 09:34:03;;;;;;;3.20;1.70;;;17.60;97.20;;;;;;1675083;29;20671;-71
2022/11/10 09:34:54;;;;;;;3.85;1.65;;;17.70;97.20;;;;;;1676118;29;20245;-70
2022/11/10 09:35:45;;;;;;;4.00;2.30;;;17.80;97.20;;;;;;1681438;29;20205;-70
2022/11/10 09:36:39;;;;;;;5.65;1.98;;;17.90;97.20;;;;;;1680496;29;20209;-70
2022/11/10 09:37:32;;;;;;;3.58;2.05;;;18.00;97.20;;;;;;1681512;29;20222;-70
2022/11/10 09:38:22;;;;;;;3.05;1.50;;;18.00;97.20;;;;;;1677918;29;20209;-71
2022/11/10 09:39:15;;;;;;;2.13;1.47;;;18.10;97.20;;;;;;1679854;29;20216;-70
2022/11/10 09:40:11;;;;;;;4.47;1.65;;;18.10;97.20;;;;;;1681126;29;20764;-70
2022/11/10 09:41:05;;;;;;;3.30;1.80;;;18.20;97.20;;;;;;1681127;29;20256;-70
2022/11/10 09:41:57;;;;;;;1.90;1.60;;;18.30;97.20;;;;;;1681469;29;20208;-71
2022/11/10 09:42:51;;;;;;;2.25;1.52;;;18.30;97.20;;;;;;1679566;29;20209;-70
2022/11/10 09:43:49;;;;;;;4.40;2.08;;;18.40;97.20;;;;;;1674995;29;20234;-70
2022/11/10 09:44:50;;;;;;;3.95;1.60;;;18.50;97.20;;;;;;1675033;29;20473;-71
2022/11/10 09:45:44;;;;;;;6.95;1.98;;;18.60;97.20;;;;;;1681203;29;20943;-71
2022/11/10 09:46:40;;;;;;;3.35;1.48;;;18.70;97.20;;;;;;1680612;29;20209;-70
2022/11/10 09:47:38;;;;;;;8.82;1.85;;;18.80;97.20;;;;;;1681444;29;20228;-70
2022/11/10 09:48:34;;;;;;;2.90;1.40;;;18.90;97.20;;;;;;1675006;29;20221;-70
2022/11/10 09:49:33;;;;;;;5.03;1.75;;;19.00;97.20;;;;;;1675039;29;20697;-71
2022/11/10 09:50:35;;;;;;;3.72;1.67;;;19.10;97.20;;;;;;1680717;29;20213;-70
2022/11/10 09:51:31;;;;;;;2.28;1.55;;;19.20;97.20;;;;;;1681387;29;20240;-70
2022/11/10 09:52:26;;;;;;;4.88;1.90;;;19.20;97.20;;;;;;1679168;29;20205;-70
2022/11/10 09:53:22;;;;;;;4.55;1.40;;;19.20;97.20;;;;;;1674884;29;20595;-70
2022/11/10 09:54:34;;;;;;;5.35;1.98;;;19.30;97.20;;;;;;1683166;29;20216;-71
2022/11/10 09:55:34;;;;;;;4.15;1.65;;;19.30;97.20;;;;;;1687803;29;20565;-70
2022/11/10 09:56:31;;;;;;;4.75;1.90;;;19.30;97.20;;;;;;1687308;29;20213;-70
2022/11/10 09:57:24;;;;;;;2.05;1.55;;;19.40;97.20;;;;;;1687639;29;20212;-70
2022/11/10 09:58:17;;;;;;;2.33;1.40;;;19.40;97.20;;;;;;1683402;29;20257;-70
2022/11/10 09:59:15;;;;;;;3.33;1.80;;;19.50;97.20;;;;;;1681358;29;20325;-70
2022/11/10 10:00:10;;;;;;;2.75;1.58;;;19.50;97.20;;;;;;1681369;29;20217;-70
2022/11/10 10:01:14;;;;;;;6.07;2.00;;;19.60;97.20;;;;;;1681157;29;20222;-70
2022/11/10 10:02:19;;;;;;;3.05;1.40;;;19.60;97.20;;;;;;1679107;29;20205;-70
2022/11/10 10:03:16;;;;;;;3.05;1.35;;;19.70;97.20;;;;;;1675003;29;20218;-70
2022/11/10 10:04:19;;;;;;;4.97;1.65;;;19.80;97.20;;;;;;1675911;29;20232;-70
2022/11/10 10:05:47;;;;;;;4.55;1.55;;;19.90;97.20;;;;;;1675094;29;20560;-70
2022/11/10 10:06:46;;;;;;;3.80;1.05;;;19.90;97.20;;;;;;1666043;29;20219;-71
2022/11/10 10:07:47;;;;;;;2.13;1.35;;;19.90;97.20;;;;;;1666883;29;20688;-71
2022/11/10 10:08:58;;;;;;;3.45;1.55;;;20.00;97.20;;;;;;1667684;29;20573;-71
2022/11/10 10:09:59;;;;;;;2.15;1.20;;;20.00;97.20;;;;;;1667386;29;20214;-70
2022/11/10 10:10:59;;;;;;;4.88;1.25;;;20.00;97.20;;;;;;1667393;29;20242;-70
2022/11/10 10:12:01;;;;;;;3.40;1.27;;;20.10;97.20;;;;;;1667810;29;20237;-70
2022/11/10 10:13:03;;;;;;;2.92;1.25;;;20.20;97.20;;;;;;1679608;29;20210;-70
2022/11/10 10:14:07;;;;;;;3.58;1.50;;;20.30;97.20;;;;;;1676145;29;20244;-70
2022/11/10 10:15:20;;;;;;;3.47;1.50;;;20.40;97.20;;;;;;1681392;29;20665;-70
2022/11/10 10:16:17;;;;;;;2.08;1.30;;;20.50;97.20;;;;;;1680435;29;20220;-70
2022/11/10 10:17:19;;;;;;;3.25;1.50;;;20.60;97.20;;;;;;1681208;29;20624;-70
2022/11/10 10:18:22;;;;;;;3.65;1.42;;;20.70;97.20;;;;;;1679299;29;20209;-70
2022/11/10 10:19:25;;;;;;;2.97;1.40;;;20.70;97.20;;;;;;1681268;29;20213;-71
2022/11/10 10:20:25;;;;;;;5.03;1.65;;;20.80;97.20;;;;;;1680827;29;20275;-71
2022/11/10 10:21:27;;;;;;;4.88;1.35;;;20.80;97.20;;;;;;1681292;29;20220;-72
2022/11/10 10:22:44;;;;;;;6.45;1.63;;;20.90;97.20;;;;;;1680985;29;20198;-70
2022/11/10 10:23:40;;;;;;;2.63;1.40;;;21.10;97.20;;;;;;1681264;29;20224;-70
2022/11/10 10:24:34;;;;;;;2.47;1.20;;;21.10;97.20;;;;;;1675220;29;20202;-70
2022/11/10 10:25:26;;;;;;;2.50;1.00;;;21.20;97.20;;;;;;1674867;29;20432;-70
2022/11/10 10:26:22;;;;;;;2.53;1.20;;;21.20;97.20;;;;;;1678761;29;20209;-71
2022/11/10 10:27:18;;;;;;;3.45;1.30;;;21.20;97.20;;;;;;1687500;29;20729;-70
2022/11/10 10:28:16;;;;;;;3.30;1.20;;;21.20;97.20;;;;;;1687540;29;20208;-70
2022/11/10 10:29:09;;;;;;;5.35;1.55;;;21.20;97.20;;;;;;1674776;29;20669;-70
2022/11/10 10:30:01;;;;;;;3.70;1.63;;;21.30;97.20;;;;;;1674773;29;20217;-70
2022/11/10 10:30:53;;;;;;;4.22;1.38;;;21.30;97.20;;;;;;1679428;29;20579;-70
2022/11/10 10:31:48;;;;;;;2.30;1.00;;;21.30;97.20;;;;;;1681139;29;20233;-70
2022/11/10 10:32:39;;;;;;;2.67;1.30;;;21.20;97.20;;;;;;1680843;29;20600;-70
2022/11/10 10:33:30;;;;;;;3.25;1.33;;;21.10;97.20;;;;;;1681250;29;20660;-70
2022/11/10 10:34:25;;;;;;;6.35;1.30;;;21.10;97.20;;;;;;1680791;29;20201;-70
2022/11/10 10:35:18;;;;;;;3.67;1.00;;;21.10;97.20;;;;;;1681114;29;20694;-70